Time;durP1;ratioP1;P1;durP2;ratioP2;P2;SDS_P1;SDS_P2;PMS_P1;PMS_P2;Temp;Humidity;BMP_temperature;BMP_pressure;BME280_temperature;BME280_humidity;BME280_pressure;Samples;Min_cycle;Max_cycle;Signal;HPM_P1;HPM_P2
2021/08/09 00:02:23;;;;;;;20.38;3.70;;;19.20;85.00;;;;;;5024150;28;20120;-61
2021/08/09 00:04:48;;;;;;;16.55;3.67;;;19.20;85.10;;;;;;5041789;28;20052;-60
2021/08/09 00:07:14;;;;;;;19.05;3.63;;;19.10;85.10;;;;;;5023233;28;20123;-60
2021/08/09 00:09:40;;;;;;;19.17;3.65;;;19.10;85.20;;;;;;5021397;28;20389;-60
2021/08/09 00:12:05;;;;;;;19.92;4.30;;;19.00;85.30;;;;;;5042207;28;20130;-61
2021/08/09 00:14:31;;;;;;;20.83;4.18;;;19.10;85.20;;;;;;5023570;28;20126;-60
2021/08/09 00:16:56;;;;;;;10.38;3.70;;;19.00;85.30;;;;;;5024446;28;20489;-60
2021/08/09 00:19:22;;;;;;;8.23;4.03;;;19.00;85.20;;;;;;5023901;28;20043;-60
2021/08/09 00:21:47;;;;;;;11.10;3.90;;;19.00;85.10;;;;;;5042854;28;20110;-60
2021/08/09 00:24:13;;;;;;;11.93;3.63;;;19.00;85.30;;;;;;5042068;28;20128;-60
2021/08/09 00:26:38;;;;;;;9.88;3.45;;;19.00;85.30;;;;;;5039244;28;20041;-60
2021/08/09 00:29:04;;;;;;;11.73;3.42;;;18.90;85.30;;;;;;5042795;28;20033;-60
2021/08/09 00:31:30;;;;;;;12.00;3.65;;;18.90;85.20;;;;;;5055689;28;20710;-60
2021/08/09 00:33:55;;;;;;;9.20;3.58;;;18.90;85.30;;;;;;5022582;28;20525;-60
2021/08/09 00:36:21;;;;;;;14.07;4.55;;;18.90;85.30;;;;;;5021585;28;20483;-60
2021/08/09 00:38:46;;;;;;;10.88;3.70;;;18.90;85.40;;;;;;5041724;28;20037;-60
2021/08/09 00:41:12;;;;;;;12.95;3.95;;;18.90;85.40;;;;;;5042181;28;20057;-60
2021/08/09 00:43:38;;;;;;;13.32;3.65;;;18.90;85.40;;;;;;5043092;28;20459;-60
2021/08/09 00:46:04;;;;;;;5.90;3.40;;;18.80;85.40;;;;;;5006531;28;20326;-61
2021/08/09 00:48:31;;;;;;;7.57;3.78;;;18.90;85.40;;;;;;5022382;28;20143;-60
2021/08/09 00:50:57;;;;;;;9.48;3.03;;;18.80;85.40;;;;;;5055635;28;20061;-60
2021/08/09 00:53:23;;;;;;;6.20;3.38;;;18.80;85.40;;;;;;5041156;28;20059;-60
2021/08/09 00:55:51;;;;;;;8.60;3.30;;;18.80;85.40;;;;;;5022653;28;20063;-60
2021/08/09 00:58:17;;;;;;;8.32;3.70;;;18.80;85.50;;;;;;5023985;28;20029;-60
2021/08/09 01:00:42;;;;;;;10.40;3.60;;;18.80;85.40;;;;;;5045263;28;20032;-61
2021/08/09 01:03:08;;;;;;;8.02;4.03;;;18.80;85.50;;;;;;5027324;28;20051;-60
2021/08/09 01:05:33;;;;;;;10.07;3.78;;;18.80;85.60;;;;;;5044831;28;20113;-60
2021/08/09 01:08:10;;;;;;;10.50;3.92;;;18.70;85.60;;;;;;5044157;28;20115;-60
2021/08/09 01:10:46;;;;;;;6.88;3.67;;;18.70;85.60;;;;;;5027188;28;20558;-60
2021/08/09 01:13:26;;;;;;;9.10;4.00;;;18.70;85.80;;;;;;5039574;28;20680;-60
2021/08/09 01:15:54;;;;;;;6.65;3.30;;;18.70;85.80;;;;;;5041342;28;20085;-64
2021/08/09 01:18:20;;;;;;;7.38;3.53;;;18.70;85.90;;;;;;5057568;28;20035;-60
2021/08/09 01:20:49;;;;;;;10.07;3.72;;;18.60;85.70;;;;;;5025949;28;20036;-60
2021/08/09 01:23:39;;;;;;;9.70;3.25;;;18.70;85.80;;;;;;5027440;28;20045;-60
2021/08/09 01:26:12;;;;;;;6.20;3.28;;;18.60;85.80;;;;;;5023916;28;20036;-60
2021/08/09 01:28:37;;;;;;;7.57;4.07;;;18.60;85.80;;;;;;5025583;28;20187;-60
2021/08/09 01:31:03;;;;;;;9.18;3.17;;;18.60;85.80;;;;;;5024394;28;20159;-60
2021/08/09 01:33:30;;;;;;;8.85;3.38;;;18.60;85.90;;;;;;5041924;28;20162;-60
2021/08/09 01:35:55;;;;;;;5.18;3.25;;;18.60;86.00;;;;;;5022163;28;20032;-60
2021/08/09 01:38:22;;;;;;;10.00;3.35;;;18.60;86.00;;;;;;5008864;28;20033;-60
2021/08/09 01:40:47;;;;;;;6.93;3.33;;;18.50;85.90;;;;;;5009771;28;20089;-60
2021/08/09 01:43:13;;;;;;;8.80;3.10;;;18.50;86.00;;;;;;5027712;28;20033;-60
2021/08/09 01:45:39;;;;;;;3.65;2.70;;;18.50;86.10;;;;;;5027088;28;20037;-60
2021/08/09 01:48:04;;;;;;;5.93;2.88;;;18.50;86.10;;;;;;5026349;28;20123;-60
2021/08/09 01:50:30;;;;;;;7.07;3.15;;;18.50;86.10;;;;;;5027194;28;20032;-60
2021/08/09 01:52:55;;;;;;;9.48;3.47;;;18.50;86.20;;;;;;5043276;28;20041;-60
2021/08/09 01:55:21;;;;;;;5.55;2.85;;;18.50;86.30;;;;;;5027496;28;20303;-60
2021/08/09 01:57:46;;;;;;;7.22;3.10;;;18.40;86.30;;;;;;5027827;28;20420;-60
2021/08/09 02:00:14;;;;;;;6.32;2.55;;;18.50;86.30;;;;;;5044871;28;20025;-60
2021/08/09 02:02:40;;;;;;;5.03;2.80;;;18.40;86.30;;;;;;5059139;28;20419;-60
2021/08/09 02:05:07;;;;;;;3.45;2.65;;;18.40;86.30;;;;;;5042943;28;20025;-60
2021/08/09 02:07:37;;;;;;;8.73;2.47;;;18.40;86.50;;;;;;5038367;28;20072;-60
2021/08/09 02:10:06;;;;;;;3.38;2.15;;;18.40;86.50;;;;;;5039168;28;20025;-60
2021/08/09 02:12:40;;;;;;;4.95;2.50;;;18.40;86.70;;;;;;5025374;28;20060;-60
2021/08/09 02:15:06;;;;;;;7.88;2.65;;;18.30;86.70;;;;;;5044247;28;20488;-60
2021/08/09 02:17:40;;;;;;;3.47;2.35;;;18.30;86.70;;;;;;5024491;28;20033;-60
2021/08/09 02:20:32;;;;;;;4.78;2.53;;;18.30;86.80;;;;;;5026349;28;20360;-60
2021/08/09 02:22:59;;;;;;;4.45;2.47;;;18.30;86.90;;;;;;5036302;28;20052;-60
2021/08/09 02:25:26;;;;;;;3.55;2.58;;;18.20;86.80;;;;;;5042794;28;20143;-60
2021/08/09 02:28:14;;;;;;;3.55;2.40;;;18.20;86.90;;;;;;5025203;28;20039;-60
2021/08/09 02:30:52;;;;;;;6.53;2.92;;;18.20;86.80;;;;;;5025840;28;20424;-60
2021/08/09 02:33:18;;;;;;;4.20;2.05;;;18.20;86.80;;;;;;5038406;28;20358;-60
2021/08/09 02:35:44;;;;;;;3.95;2.40;;;18.20;86.90;;;;;;5023424;28;20028;-60
2021/08/09 02:38:10;;;;;;;4.97;2.58;;;18.20;86.90;;;;;;5024827;28;20385;-61
2021/08/09 02:40:35;;;;;;;4.03;2.78;;;18.20;86.90;;;;;;5026668;28;20041;-60
2021/08/09 02:43:01;;;;;;;4.80;2.65;;;18.20;87.00;;;;;;5025909;28;20840;-60
2021/08/09 02:45:27;;;;;;;4.15;2.80;;;18.20;87.10;;;;;;5042119;28;20072;-60
2021/08/09 02:47:52;;;;;;;4.38;3.33;;;18.20;87.00;;;;;;5042594;28;20397;-60
2021/08/09 02:50:18;;;;;;;5.38;3.38;;;18.20;87.00;;;;;;5007646;28;20441;-61
2021/08/09 02:52:43;;;;;;;5.20;3.33;;;18.10;87.00;;;;;;5024714;28;20228;-60
2021/08/09 02:55:09;;;;;;;6.32;3.38;;;18.10;87.00;;;;;;5043311;28;20344;-60
2021/08/09 02:57:35;;;;;;;7.22;3.35;;;18.10;87.10;;;;;;5025582;28;20021;-60
2021/08/09 03:00:01;;;;;;;7.13;2.88;;;18.10;87.20;;;;;;5025682;28;20044;-60
2021/08/09 03:02:28;;;;;;;5.57;3.45;;;18.10;87.20;;;;;;5044317;28;20033;-60
2021/08/09 03:04:53;;;;;;;4.97;2.85;;;18.10;87.20;;;;;;5024866;28;20158;-60
2021/08/09 03:07:19;;;;;;;7.43;2.90;;;18.10;87.30;;;;;;5023523;28;20028;-60
2021/08/09 03:09:44;;;;;;;3.50;2.65;;;18.10;87.30;;;;;;5023501;28;20029;-60
2021/08/09 03:12:13;;;;;;;5.07;2.63;;;18.00;87.20;;;;;;5024758;28;20049;-61
2021/08/09 03:14:38;;;;;;;5.68;2.78;;;18.00;87.30;;;;;;5042519;28;20355;-60
2021/08/09 03:17:05;;;;;;;6.88;2.83;;;18.00;87.30;;;;;;5024497;28;20029;-61
2021/08/09 03:19:30;;;;;;;6.22;2.92;;;18.00;87.40;;;;;;5042955;28;20350;-60
2021/08/09 03:21:58;;;;;;;5.32;2.70;;;18.00;87.40;;;;;;5005701;28;20492;-60
2021/08/09 03:24:24;;;;;;;5.43;2.92;;;18.00;87.50;;;;;;5020648;28;20037;-60
2021/08/09 03:26:50;;;;;;;4.97;2.13;;;18.00;87.50;;;;;;5024258;28;20025;-60
2021/08/09 03:29:15;;;;;;;6.65;2.38;;;18.00;87.60;;;;;;5024866;28;20049;-60
2021/08/09 03:31:41;;;;;;;5.18;2.10;;;18.00;87.60;;;;;;5025929;28;20098;-60
2021/08/09 03:34:06;;;;;;;5.30;2.60;;;18.00;87.70;;;;;;5021896;28;20033;-60
2021/08/09 03:36:32;;;;;;;5.20;2.58;;;17.90;87.70;;;;;;5023172;28;20039;-60
2021/08/09 03:38:57;;;;;;;5.60;2.35;;;17.90;87.70;;;;;;5024039;28;20176;-60
2021/08/09 03:41:23;;;;;;;4.20;2.50;;;17.90;87.70;;;;;;5024863;28;20073;-60
2021/08/09 03:43:48;;;;;;;3.67;2.13;;;17.90;87.70;;;;;;5042447;28;20115;-60
2021/08/09 03:46:14;;;;;;;5.82;2.35;;;17.90;87.70;;;;;;5009033;28;20120;-60
2021/08/09 03:48:40;;;;;;;4.53;2.53;;;17.90;87.70;;;;;;5040823;28;20029;-60
2021/08/09 03:51:06;;;;;;;10.23;2.30;;;17.90;87.80;;;;;;5024522;28;20111;-60
2021/08/09 03:53:31;;;;;;;3.45;2.03;;;17.80;88.00;;;;;;5041797;28;20368;-60
2021/08/09 03:55:57;;;;;;;5.38;2.40;;;17.90;88.00;;;;;;5024648;28;20025;-60
2021/08/09 03:58:22;;;;;;;5.60;1.95;;;17.80;88.10;;;;;;5023977;28;20063;-60
2021/08/09 04:00:48;;;;;;;3.13;2.03;;;17.80;88.20;;;;;;5024340;28;20025;-60
2021/08/09 04:03:13;;;;;;;3.72;1.90;;;17.80;88.20;;;;;;5023123;28;20274;-60
2021/08/09 04:05:39;;;;;;;5.40;2.30;;;17.80;88.30;;;;;;5039609;28;20072;-60
2021/08/09 04:08:04;;;;;;;4.22;2.28;;;17.80;88.40;;;;;;5040046;28;20485;-60
2021/08/09 04:10:30;;;;;;;3.60;2.03;;;17.80;88.40;;;;;;5042406;28;20082;-60
2021/08/09 04:12:56;;;;;;;4.18;2.03;;;17.80;88.40;;;;;;5043521;28;20031;-60
2021/08/09 04:15:21;;;;;;;4.80;2.20;;;17.70;88.40;;;;;;5022847;28;20325;-60
2021/08/09 04:17:47;;;;;;;3.65;2.00;;;17.70;88.40;;;;;;5039638;28;20468;-60
2021/08/09 04:20:12;;;;;;;3.78;2.00;;;17.70;88.40;;;;;;5042780;28;20433;-60
2021/08/09 04:22:38;;;;;;;4.13;2.15;;;17.70;88.40;;;;;;5041521;28;20065;-60
2021/08/09 04:25:04;;;;;;;4.10;1.65;;;17.70;89.00;;;;;;5040365;28;20068;-60
2021/08/09 04:27:29;;;;;;;4.50;1.90;;;17.70;88.50;;;;;;5023913;28;20352;-60
2021/08/09 04:29:55;;;;;;;8.35;2.15;;;17.70;88.60;;;;;;5022080;28;20048;-60
2021/08/09 04:32:20;;;;;;;5.15;2.25;;;17.60;88.50;;;;;;5038895;28;20033;-60
2021/08/09 04:34:46;;;;;;;3.63;2.10;;;17.60;88.60;;;;;;5024315;28;20025;-60
2021/08/09 04:37:12;;;;;;;4.78;2.67;;;17.60;88.60;;;;;;5046219;28;20036;-60
2021/08/09 04:39:37;;;;;;;4.07;2.10;;;17.60;88.60;;;;;;5026877;28;20503;-60
2021/08/09 04:42:03;;;;;;;4.68;2.00;;;17.60;88.70;;;;;;5027986;28;20101;-59
2021/08/09 04:44:29;;;;;;;4.22;2.17;;;17.50;88.80;;;;;;5028180;28;20439;-60
2021/08/09 04:46:56;;;;;;;5.13;1.95;;;17.50;89.00;;;;;;5029118;28;20033;-60
2021/08/09 04:49:22;;;;;;;4.88;1.98;;;17.50;88.70;;;;;;5046138;28;20037;-61
2021/08/09 04:51:48;;;;;;;4.65;2.25;;;17.50;88.70;;;;;;5044771;28;20526;-60
2021/08/09 04:54:13;;;;;;;5.60;2.05;;;17.50;88.80;;;;;;5045224;28;20029;-61
2021/08/09 04:56:39;;;;;;;6.93;2.47;;;17.50;89.00;;;;;;5026739;28;20483;-60
2021/08/09 04:59:04;;;;;;;3.28;2.15;;;17.50;89.00;;;;;;5029316;28;20053;-60
2021/08/09 05:01:30;;;;;;;6.13;2.00;;;17.40;89.10;;;;;;5045655;28;20041;-60
2021/08/09 05:03:55;;;;;;;4.70;1.80;;;17.40;89.10;;;;;;5027288;28;20128;-60
2021/08/09 05:06:21;;;;;;;2.60;1.70;;;17.40;89.10;;;;;;5044552;28;21225;-60
2021/08/09 05:08:47;;;;;;;3.78;1.98;;;17.40;89.20;;;;;;5057681;28;20041;-61
2021/08/09 05:11:12;;;;;;;3.03;2.05;;;17.40;89.20;;;;;;5044054;28;20059;-61
2021/08/09 05:13:38;;;;;;;4.15;1.95;;;17.40;89.20;;;;;;5044595;28;20116;-60
2021/08/09 05:16:04;;;;;;;5.70;2.13;;;17.30;89.30;;;;;;5044801;28;20037;-61
2021/08/09 05:18:29;;;;;;;7.80;2.15;;;17.30;89.40;;;;;;5043355;28;20068;-60
2021/08/09 05:20:55;;;;;;;3.55;1.65;;;17.30;89.40;;;;;;5042670;28;20082;-60
2021/08/09 05:23:20;;;;;;;3.25;1.90;;;17.30;89.40;;;;;;5022642;28;20124;-60
2021/08/09 05:25:46;;;;;;;6.53;2.33;;;17.30;89.40;;;;;;5044846;28;20073;-60
2021/08/09 05:28:11;;;;;;;3.40;1.83;;;17.30;89.40;;;;;;5042791;28;20143;-60
2021/08/09 05:30:37;;;;;;;4.65;1.98;;;17.30;90.00;;;;;;5044738;28;20586;-60
2021/08/09 05:33:04;;;;;;;3.95;2.20;;;17.30;89.50;;;;;;5041940;28;20071;-60
2021/08/09 05:35:29;;;;;;;6.13;2.20;;;17.30;90.00;;;;;;5023929;28;20044;-60
2021/08/09 05:37:55;;;;;;;4.20;2.00;;;17.30;89.50;;;;;;5024954;28;20025;-60
2021/08/09 05:40:20;;;;;;;3.38;2.08;;;17.30;89.60;;;;;;5041648;28;20040;-60
2021/08/09 05:42:49;;;;;;;2.58;1.67;;;17.30;89.60;;;;;;5027824;28;20062;-60
2021/08/09 05:45:14;;;;;;;4.70;2.38;;;17.30;90.00;;;;;;5041184;28;20082;-60
2021/08/09 05:47:40;;;;;;;3.58;2.10;;;17.30;89.60;;;;;;5027000;28;20400;-60
2021/08/09 05:50:06;;;;;;;6.30;2.13;;;17.30;89.70;;;;;;5043089;28;20040;-60
2021/08/09 05:52:31;;;;;;;2.85;1.83;;;17.20;89.60;;;;;;5043477;28;20036;-60
2021/08/09 05:55:00;;;;;;;6.28;1.95;;;17.20;89.70;;;;;;5044737;28;20032;-60
2021/08/09 05:57:26;;;;;;;4.22;2.13;;;17.30;89.80;;;;;;5024111;28;20013;-60
2021/08/09 05:59:52;;;;;;;3.50;2.08;;;17.20;89.70;;;;;;5026087;28;20044;-60
2021/08/09 06:02:17;;;;;;;5.00;2.00;;;17.20;89.80;;;;;;5045067;28;20029;-60
2021/08/09 06:04:43;;;;;;;6.78;2.10;;;17.20;89.70;;;;;;5041946;28;20017;-60
2021/08/09 06:07:12;;;;;;;3.63;1.90;;;17.20;89.80;;;;;;5024784;28;20056;-60
2021/08/09 06:09:38;;;;;;;3.08;2.15;;;17.20;89.80;;;;;;5040480;28;20086;-60
2021/08/09 06:12:04;;;;;;;4.45;1.98;;;17.20;89.90;;;;;;5041798;28;20037;-60
2021/08/09 06:14:29;;;;;;;3.65;2.10;;;17.20;89.90;;;;;;5005769;28;20311;-60
2021/08/09 06:16:55;;;;;;;8.18;2.53;;;17.20;90.00;;;;;;5024825;28;20029;-61
2021/08/09 06:19:20;;;;;;;5.95;2.15;;;17.20;90.00;;;;;;5043258;28;20033;-60
2021/08/09 06:21:46;;;;;;;2.20;1.80;;;17.20;90.00;;;;;;5022492;28;20053;-60
2021/08/09 06:24:11;;;;;;;7.40;2.47;;;17.30;90.00;;;;;;5019729;28;20045;-60
2021/08/09 06:26:37;;;;;;;12.20;2.60;;;17.20;90.00;;;;;;5035355;28;20037;-60
2021/08/09 06:29:02;;;;;;;6.78;2.28;;;17.20;90.10;;;;;;5042532;28;20033;-60
2021/08/09 06:31:28;;;;;;;7.35;2.30;;;17.20;90.10;;;;;;5025802;28;20104;-60
2021/08/09 06:33:53;;;;;;;19.55;3.25;;;17.20;90.10;;;;;;5058213;28;20400;-60
2021/08/09 06:36:19;;;;;;;8.25;2.20;;;17.20;90.10;;;;;;5008026;28;20035;-60
2021/08/09 06:38:44;;;;;;;10.35;2.53;;;17.20;90.20;;;;;;5042623;28;20396;-60
2021/08/09 06:41:10;;;;;;;7.05;2.50;;;17.20;90.10;;;;;;5040070;28;20086;-60
2021/08/09 06:43:35;;;;;;;12.73;3.00;;;17.20;90.10;;;;;;5044378;28;20092;-60
2021/08/09 06:46:01;;;;;;;6.78;2.50;;;17.20;90.10;;;;;;5024891;28;20098;-60
2021/08/09 06:48:27;;;;;;;149.82;11.15;;;17.30;90.10;;;;;;5039564;28;20051;-60
2021/08/09 06:50:52;;;;;;;43.38;6.10;;;17.20;90.20;;;;;;5040489;28;20041;-60
2021/08/09 06:53:18;;;;;;;70.97;6.78;;;17.20;90.20;;;;;;5042662;28;20417;-60
2021/08/09 06:55:43;;;;;;;99.95;10.10;;;17.30;90.30;;;;;;5036242;28;20041;-60
2021/08/09 06:58:09;;;;;;;28.67;4.07;;;17.20;90.30;;;;;;5023634;28;20021;-60
2021/08/09 07:00:35;;;;;;;40.03;5.45;;;17.30;90.30;;;;;;5036766;28;20492;-60
2021/08/09 07:03:09;;;;;;;16.92;3.25;;;17.30;90.30;;;;;;5041179;28;20060;-60
2021/08/09 07:05:42;;;;;;;17.80;2.63;;;17.30;90.40;;;;;;5024161;28;20021;-60
2021/08/09 07:08:08;;;;;;;10.20;3.28;;;17.30;90.60;;;;;;5022463;28;20045;-60
2021/08/09 07:10:34;;;;;;;11.68;3.22;;;17.30;90.70;;;;;;5054667;28;20029;-60
2021/08/09 07:12:59;;;;;;;10.48;3.00;;;17.30;91.00;;;;;;5024144;28;20081;-60
2021/08/09 07:15:25;;;;;;;12.45;3.47;;;17.30;90.90;;;;;;5024436;28;20037;-61
2021/08/09 07:17:50;;;;;;;14.35;3.28;;;17.30;91.00;;;;;;5022621;28;20032;-60
2021/08/09 07:20:16;;;;;;;11.80;3.33;;;17.30;91.00;;;;;;5041437;28;20033;-61
2021/08/09 07:22:42;;;;;;;20.30;3.65;;;17.30;91.00;;;;;;5008503;28;20036;-60
2021/08/09 07:25:09;;;;;;;18.15;3.47;;;17.30;91.10;;;;;;5023823;28;20075;-60
2021/08/09 07:27:34;;;;;;;16.05;3.38;;;17.30;91.40;;;;;;5041897;28;20108;-60
2021/08/09 07:30:00;;;;;;;27.77;3.78;;;17.30;91.40;;;;;;5040906;28;20203;-60
2021/08/09 07:32:26;;;;;;;47.15;6.28;;;17.30;91.60;;;;;;5038698;28;20462;-60
2021/08/09 07:34:51;;;;;;;32.00;5.38;;;17.30;91.50;;;;;;5040642;28;20253;-60
2021/08/09 07:37:17;;;;;;;41.85;5.53;;;17.30;91.60;;;;;;5021598;28;20095;-60
2021/08/09 07:39:42;;;;;;;50.03;6.43;;;17.30;91.70;;;;;;5039620;28;20100;-61
2021/08/09 07:42:08;;;;;;;33.90;5.97;;;17.40;91.70;;;;;;5021363;28;20041;-59
2021/08/09 07:44:33;;;;;;;57.67;7.32;;;17.40;91.80;;;;;;5035957;28;20037;-60
2021/08/09 07:46:59;;;;;;;38.40;5.93;;;17.40;91.80;;;;;;5007575;28;20025;-60
2021/08/09 07:49:24;;;;;;;43.45;6.18;;;17.40;91.70;;;;;;5024292;28;20037;-60
2021/08/09 07:51:50;;;;;;;35.90;5.35;;;17.50;91.80;;;;;;5024031;28;20036;-60
2021/08/09 07:54:19;;;;;;;26.33;4.97;;;17.40;91.60;;;;;;5042139;28;20044;-60
2021/08/09 07:56:45;;;;;;;43.78;5.47;;;17.50;91.70;;;;;;5036909;28;20097;-60
2021/08/09 07:59:10;;;;;;;34.20;5.03;;;17.50;91.80;;;;;;5055589;28;20025;-60
2021/08/09 08:01:36;;;;;;;47.30;5.55;;;17.50;91.80;;;;;;5035670;28;20061;-60
2021/08/09 08:04:01;;;;;;;56.65;7.82;;;17.60;91.60;;;;;;5035402;28;20037;-60
2021/08/09 08:06:27;;;;;;;37.13;7.30;;;17.60;91.60;;;;;;5030302;28;20516;-60
2021/08/09 08:08:52;;;;;;;49.88;6.18;;;17.60;91.60;;;;;;5017717;28;20431;-60
2021/08/09 08:11:18;;;;;;;43.70;6.03;;;17.70;91.50;;;;;;5020998;28;20024;-60
2021/08/09 08:13:43;;;;;;;30.20;4.93;;;17.70;91.50;;;;;;5041464;28;20041;-60
2021/08/09 08:16:10;;;;;;;41.95;5.43;;;17.70;91.50;;;;;;5040975;28;20025;-60
2021/08/09 08:18:35;;;;;;;26.63;4.03;;;17.70;91.40;;;;;;5040915;28;20189;-60
2021/08/09 08:21:01;;;;;;;42.28;5.45;;;17.70;91.40;;;;;;5019732;28;20381;-60
2021/08/09 08:23:26;;;;;;;27.02;5.10;;;17.80;91.50;;;;;;5019017;28;20057;-60
2021/08/09 08:25:52;;;;;;;40.05;5.10;;;17.80;91.50;;;;;;5038926;28;20067;-61
2021/08/09 08:28:18;;;;;;;25.90;4.25;;;17.80;91.50;;;;;;5040328;28;20025;-60
2021/08/09 08:30:44;;;;;;;30.38;4.05;;;17.80;91.50;;;;;;5021093;28;20029;-60
2021/08/09 08:33:09;;;;;;;36.70;5.70;;;17.90;91.50;;;;;;5018265;28;20029;-60
2021/08/09 08:35:35;;;;;;;26.58;4.95;;;17.90;91.40;;;;;;5036427;28;20488;-60
2021/08/09 08:38:00;;;;;;;22.80;4.50;;;17.90;91.30;;;;;;5038978;28;20449;-59
2021/08/09 08:40:26;;;;;;;32.00;5.38;;;18.00;91.30;;;;;;5023975;28;20121;-60
2021/08/09 08:42:53;;;;;;;31.20;4.35;;;18.00;91.20;;;;;;5023370;28;20135;-60
2021/08/09 08:45:22;;;;;;;24.67;4.13;;;18.10;91.10;;;;;;5023033;28;20031;-60
2021/08/09 08:47:48;;;;;;;28.60;4.13;;;18.10;91.00;;;;;;5004787;28;20211;-60
2021/08/09 08:50:16;;;;;;;31.38;5.80;;;18.20;91.10;;;;;;5022360;28;20033;-60
2021/08/09 08:52:45;;;;;;;31.60;4.68;;;18.20;90.90;;;;;;5021110;28;20311;-60
2021/08/09 08:55:11;;;;;;;28.15;4.63;;;18.30;91.20;;;;;;5019182;28;20032;-61
2021/08/09 08:57:36;;;;;;;38.55;5.35;;;18.30;90.80;;;;;;5037396;28;20669;-61
2021/08/09 09:00:02;;;;;;;29.33;4.75;;;18.30;90.70;;;;;;5036293;28;20094;-61
2021/08/09 09:02:37;;;;;;;35.72;4.85;;;18.40;90.80;;;;;;5039618;28;20036;-61
2021/08/09 09:05:14;;;;;;;23.98;4.70;;;18.40;90.70;;;;;;5020146;28;20045;-60
2021/08/09 09:07:47;;;;;;;33.80;5.30;;;18.40;90.60;;;;;;5004093;28;20044;-60
2021/08/09 09:10:35;;;;;;;41.67;6.00;;;18.50;90.50;;;;;;5019110;28;20037;-61
2021/08/09 09:13:08;;;;;;;48.38;5.85;;;18.50;90.50;;;;;;5038397;28;20017;-61
2021/08/09 09:16:06;;;;;;;43.72;6.07;;;18.50;90.40;;;;;;5017596;28;20131;-61
2021/08/09 09:18:47;;;;;;;32.95;4.78;;;18.60;90.50;;;;;;5034670;28;20040;-61
2021/08/09 09:21:27;;;;;;;38.45;5.95;;;18.60;90.30;;;;;;5022155;28;20464;-61
2021/08/09 09:23:53;;;;;;;47.50;5.68;;;18.60;90.20;;;;;;5009631;28;20036;-61
2021/08/09 09:26:21;;;;;;;27.40;4.65;;;18.70;90.20;;;;;;5025958;28;20049;-61
2021/08/09 09:28:46;;;;;;;43.47;5.57;;;18.70;90.00;;;;;;5020911;28;20137;-61
2021/08/09 09:31:14;;;;;;;35.15;5.88;;;18.80;90.10;;;;;;5022255;28;20104;-61
2021/08/09 09:33:46;;;;;;;30.48;5.95;;;18.80;90.00;;;;;;5022806;28;20078;-61
2021/08/09 09:36:12;;;;;;;36.63;5.00;;;18.90;90.10;;;;;;5022228;28;20073;-60
2021/08/09 09:38:41;;;;;;;26.33;4.28;;;18.90;90.00;;;;;;5025705;28;20049;-61
2021/08/09 09:41:07;;;;;;;24.05;5.03;;;18.90;89.80;;;;;;5025456;28;20049;-61
2021/08/09 09:43:43;;;;;;;32.60;5.05;;;19.00;89.70;;;;;;5023325;28;20033;-61
2021/08/09 09:46:26;;;;;;;99.32;9.88;;;19.00;89.70;;;;;;5024871;28;20648;-62
2021/08/09 09:48:56;;;;;;;25.58;4.45;;;19.10;89.70;;;;;;5024523;28;20417;-61
2021/08/09 09:51:21;;;;;;;24.15;4.53;;;19.20;89.00;;;;;;5026006;28;20017;-61
2021/08/09 09:53:48;;;;;;;21.50;5.03;;;19.20;88.60;;;;;;5040626;28;20372;-60
2021/08/09 09:56:13;;;;;;;34.13;4.65;;;19.20;88.50;;;;;;5025573;28;20036;-61
2021/08/09 09:58:39;;;;;;;49.03;5.60;;;19.30;88.40;;;;;;5022189;28;20171;-61
2021/08/09 10:01:06;;;;;;;35.15;5.38;;;19.30;88.40;;;;;;5016546;28;20033;-62
2021/08/09 10:03:32;;;;;;;38.10;5.03;;;19.40;88.40;;;;;;5023305;28;20501;-60
2021/08/09 10:05:59;;;;;;;42.95;6.75;;;19.40;88.10;;;;;;5039222;28;20488;-61
2021/08/09 10:08:25;;;;;;;59.70;8.13;;;19.40;87.90;;;;;;5018753;28;20137;-61
2021/08/09 10:10:52;;;;;;;66.32;8.52;;;19.40;87.90;;;;;;5023608;28;20136;-61
2021/08/09 10:13:20;;;;;;;89.90;9.13;;;19.50;88.00;;;;;;5021144;28;20028;-60
2021/08/09 10:15:56;;;;;;;66.15;7.72;;;19.50;87.90;;;;;;5025066;28;20029;-61
2021/08/09 10:18:26;;;;;;;87.90;8.07;;;19.60;87.70;;;;;;5021206;28;20025;-61
2021/08/09 10:20:55;;;;;;;99.97;10.55;;;19.60;87.40;;;;;;5022080;28;20041;-61
2021/08/09 10:23:46;;;;;;;67.60;8.23;;;19.70;87.10;;;;;;5021415;28;20524;-61
2021/08/09 10:26:31;;;;;;;70.15;7.68;;;19.80;86.50;;;;;;5023625;28;20203;-61
2021/08/09 10:29:00;;;;;;;51.13;6.47;;;19.80;85.90;;;;;;5029894;28;20119;-61
2021/08/09 10:31:37;;;;;;;51.08;6.18;;;19.80;85.60;;;;;;5039806;28;20021;-60
2021/08/09 10:34:04;;;;;;;50.17;6.30;;;19.90;85.50;;;;;;5054649;28;20076;-61
2021/08/09 10:37:09;;;;;;;63.53;7.38;;;19.90;85.30;;;;;;5024237;28;20679;-61
2021/08/09 10:39:49;;;;;;;43.38;8.18;;;20.00;85.20;;;;;;5021146;28;20076;-61
2021/08/09 10:42:27;;;;;;;65.28;6.88;;;20.00;85.00;;;;;;5039120;28;20516;-60
2021/08/09 10:44:53;;;;;;;47.67;5.90;;;20.10;84.90;;;;;;5006990;28;20858;-60
2021/08/09 10:47:44;;;;;;;64.13;7.80;;;20.20;84.70;;;;;;5038037;28;20068;-61
2021/08/09 10:50:10;;;;;;;46.03;6.25;;;20.20;84.00;;;;;;5022337;28;20048;-61
2021/08/09 10:52:36;;;;;;;133.00;11.73;;;20.20;83.80;;;;;;5013307;28;20271;-61
2021/08/09 10:55:30;;;;;;;50.78;5.80;;;20.20;83.40;;;;;;5053978;28;20115;-61
2021/08/09 10:57:59;;;;;;;43.08;5.45;;;20.30;82.80;;;;;;5040666;28;20132;-61
2021/08/09 11:00:40;;;;;;;46.05;6.13;;;20.40;82.50;;;;;;5022992;28;20039;-60
2021/08/09 11:03:10;;;;;;;74.97;8.10;;;20.40;81.80;;;;;;5040381;28;20515;-61
2021/08/09 11:05:36;;;;;;;54.65;6.45;;;20.40;81.20;;;;;;5022853;28;20129;-61
2021/08/09 11:08:31;;;;;;;47.88;6.28;;;20.50;81.10;;;;;;5025098;28;20120;-61
2021/08/09 11:10:58;;;;;;;43.67;5.32;;;20.50;80.60;;;;;;5024005;28;20041;-61
2021/08/09 11:13:26;;;;;;;40.30;6.50;;;20.60;80.10;;;;;;5008708;28;20457;-61
2021/08/09 11:15:53;;;;;;;44.47;5.70;;;20.60;79.60;;;;;;5022162;28;20037;-61
2021/08/09 11:18:19;;;;;;;30.55;4.43;;;20.70;77.90;;;;;;5022901;28;20048;-61
2021/08/09 11:20:44;;;;;;;65.25;6.70;;;20.70;75.40;;;;;;5024616;28;20392;-61
2021/08/09 11:23:11;;;;;;;29.60;4.18;;;20.70;75.70;;;;;;5038364;28;20037;-61
2021/08/09 11:25:44;;;;;;;40.42;4.22;;;20.80;74.50;;;;;;5022560;28;20045;-61
2021/08/09 11:28:31;;;;;;;40.50;5.00;;;20.90;72.60;;;;;;5037240;28;20040;-61
2021/08/09 11:31:02;;;;;;;32.97;3.53;;;20.90;72.20;;;;;;5040375;28;20074;-61
2021/08/09 11:33:32;;;;;;;45.03;6.53;;;21.00;70.70;;;;;;5022598;28;20229;-61
2021/08/09 11:36:01;;;;;;;51.83;6.88;;;21.10;70.10;;;;;;5035919;28;20455;-61
2021/08/09 11:38:29;;;;;;;59.90;8.05;;;21.10;70.20;;;;;;5006352;28;20552;-61
2021/08/09 11:41:00;;;;;;;35.20;4.50;;;21.10;69.60;;;;;;5055116;28;20200;-61
2021/08/09 11:43:27;;;;;;;53.50;5.97;;;21.20;68.70;;;;;;5020989;28;20029;-61
2021/08/09 11:45:54;;;;;;;35.33;5.30;;;21.30;69.10;;;;;;5022690;28;20078;-61
2021/08/09 11:48:25;;;;;;;69.68;8.82;;;21.30;68.40;;;;;;5023376;28;21215;-61
2021/08/09 11:50:54;;;;;;;46.53;6.50;;;21.30;67.90;;;;;;5037988;28;20029;-61
2021/08/09 11:53:20;;;;;;;49.17;5.90;;;21.30;68.30;;;;;;5051858;28;20040;-61
2021/08/09 11:55:45;;;;;;;51.28;6.63;;;21.40;68.10;;;;;;5021379;28;20570;-61
2021/08/09 11:58:11;;;;;;;50.15;5.97;;;21.40;68.10;;;;;;5018152;28;20453;-61
2021/08/09 12:00:38;;;;;;;57.28;6.90;;;21.50;68.40;;;;;;5022089;28;20203;-61
2021/08/09 12:03:11;;;;;;;36.30;5.53;;;21.50;68.10;;;;;;5023990;28;20025;-61
2021/08/09 12:05:37;;;;;;;32.17;5.20;;;21.60;68.00;;;;;;5036254;28;20052;-61
2021/08/09 12:08:04;;;;;;;57.08;6.18;;;21.60;67.90;;;;;;5021279;28;20123;-61
2021/08/09 12:10:30;;;;;;;20.95;3.35;;;21.70;68.00;;;;;;5022315;28;20112;-61
2021/08/09 12:12:56;;;;;;;64.90;7.70;;;21.80;67.60;;;;;;5015627;28;20520;-61
2021/08/09 12:15:23;;;;;;;44.35;5.68;;;21.90;67.40;;;;;;5036683;28;20098;-61
2021/08/09 12:18:08;;;;;;;41.25;5.30;;;21.90;67.10;;;;;;5035187;28;20037;-61
2021/08/09 12:20:34;;;;;;;27.08;4.40;;;22.00;66.80;;;;;;5006706;28;20619;-61
2021/08/09 12:23:00;;;;;;;64.45;6.50;;;22.10;67.10;;;;;;5021787;28;20053;-61
2021/08/09 12:25:37;;;;;;;56.08;6.07;;;22.10;66.70;;;;;;5018992;28;20044;-61
2021/08/09 12:28:04;;;;;;;44.70;6.38;;;22.10;66.80;;;;;;5021501;28;20446;-61
2021/08/09 12:30:30;;;;;;;34.45;4.65;;;22.20;66.70;;;;;;5032732;28;20026;-61
2021/08/09 12:32:55;;;;;;;97.75;9.07;;;22.30;66.50;;;;;;5031426;28;20154;-61
2021/08/09 12:35:36;;;;;;;48.92;6.20;;;22.30;66.20;;;;;;5032744;28;20033;-61
2021/08/09 12:38:02;;;;;;;39.92;5.65;;;22.30;66.20;;;;;;4989128;28;20341;-61
2021/08/09 12:40:57;;;;;;;62.17;7.07;;;22.40;66.30;;;;;;5021430;28;20068;-61
2021/08/09 12:43:23;;;;;;;82.35;8.90;;;22.40;66.20;;;;;;5037287;28;20037;-61
2021/08/09 12:45:49;;;;;;;67.95;6.25;;;22.50;65.90;;;;;;5020552;28;20037;-61